sensor_id;sensor_type;location;lat;lon;timestamp;temperature;humidity
4548;DHT22;2286;51.570;7.090;2022-08-02T00:02:09;15.40;99.90
4548;DHT22;2286;51.570;7.090;2022-08-02T00:04:36;15.30;99.90
4548;DHT22;2286;51.570;7.090;2022-08-02T00:07:02;15.30;99.90
4548;DHT22;2286;51.570;7.090;2022-08-02T00:09:31;15.20;99.90
4548;DHT22;2286;51.570;7.090;2022-08-02T00:11:57;15.20;99.90
4548;DHT22;2286;51.570;7.090;2022-08-02T00:14:24;15.20;99.90
4548;DHT22;2286;51.570;7.090;2022-08-02T00:16:51;15.10;99.90
4548;DHT22;2286;51.570;7.090;2022-08-02T00:19:18;15.10;99.90
4548;DHT22;2286;51.570;7.090;2022-08-02T00:21:45;15.00;99.90
4548;DHT22;2286;51.570;7.090;2022-08-02T00:24:12;15.00;99.90
4548;DHT22;2286;51.570;7.090;2022-08-02T00:26:40;15.00;99.90
4548;DHT22;2286;51.570;7.090;2022-08-02T00:29:07;15.10;99.90
4548;DHT22;2286;51.570;7.090;2022-08-02T00:31:34;15.10;99.90
4548;DHT22;2286;51.570;7.090;2022-08-02T00:34:01;15.00;99.90
4548;DHT22;2286;51.570;7.090;2022-08-02T00:36:28;15.00;99.90
4548;DHT22;2286;51.570;7.090;2022-08-02T00:38:55;15.00;99.90
4548;DHT22;2286;51.570;7.090;2022-08-02T00:41:22;15.00;99.90
4548;DHT22;2286;51.570;7.090;2022-08-02T00:43:51;14.90;99.90
4548;DHT22;2286;51.570;7.090;2022-08-02T00:46:19;14.90;99.90
4548;DHT22;2286;51.570;7.090;2022-08-02T00:48:46;14.90;99.90
4548;DHT22;2286;51.570;7.090;2022-08-02T00:51:15;14.90;99.90
4548;DHT22;2286;51.570;7.090;2022-08-02T00:53:42;14.90;99.90
4548;DHT22;2286;51.570;7.090;2022-08-02T00:56:09;14.80;99.90
4548;DHT22;2286;51.570;7.090;2022-08-02T00:58:36;14.80;99.90
4548;DHT22;2286;51.570;7.090;2022-08-02T01:01:04;14.80;99.90
4548;DHT22;2286;51.570;7.090;2022-08-02T01:03:31;14.70;99.90
4548;DHT22;2286;51.570;7.090;2022-08-02T01:05:58;14.60;99.90
4548;DHT22;2286;51.570;7.090;2022-08-02T01:08:24;14.60;99.90
4548;DHT22;2286;51.570;7.090;2022-08-02T01:10:51;14.60;99.90
4548;DHT22;2286;51.570;7.090;2022-08-02T01:13:18;14.60;99.90
4548;DHT22;2286;51.570;7.090;2022-08-02T01:15:51;14.60;99.90
4548;DHT22;2286;51.570;7.090;2022-08-02T01:18:25;14.70;99.90
4548;DHT22;2286;51.570;7.090;2022-08-02T01:21:09;14.60;99.90
4548;DHT22;2286;51.570;7.090;2022-08-02T01:26:42;14.60;99.90
4548;DHT22;2286;51.570;7.090;2022-08-02T01:29:17;14.60;99.90
4548;DHT22;2286;51.570;7.090;2022-08-02T01:31:49;14.50;99.90
4548;DHT22;2286;51.570;7.090;2022-08-02T01:34:23;14.50;99.90
4548;DHT22;2286;51.570;7.090;2022-08-02T01:36:56;14.40;99.90
4548;DHT22;2286;51.570;7.090;2022-08-02T01:39:27;14.50;99.90
4548;DHT22;2286;51.570;7.090;2022-08-02T01:41:56;14.50;99.90
4548;DHT22;2286;51.570;7.090;2022-08-02T01:44:25;14.50;99.90
4548;DHT22;2286;51.570;7.090;2022-08-02T01:46:57;14.50;99.90
4548;DHT22;2286;51.570;7.090;2022-08-02T01:49:28;14.40;99.90
4548;DHT22;2286;51.570;7.090;2022-08-02T01:51:56;14.40;99.90
4548;DHT22;2286;51.570;7.090;2022-08-02T01:54:42;14.40;99.90
4548;DHT22;2286;51.570;7.090;2022-08-02T01:57:12;14.30;99.90
4548;DHT22;2286;51.570;7.090;2022-08-02T01:59:42;14.30;99.90
4548;DHT22;2286;51.570;7.090;2022-08-02T02:02:10;14.20;99.90
4548;DHT22;2286;51.570;7.090;2022-08-02T02:04:38;14.20;99.90
4548;DHT22;2286;51.570;7.090;2022-08-02T02:07:06;14.10;99.90
4548;DHT22;2286;51.570;7.090;2022-08-02T02:09:36;14.10;99.90
4548;DHT22;2286;51.570;7.090;2022-08-02T02:12:04;14.00;99.90
4548;DHT22;2286;51.570;7.090;2022-08-02T02:14:33;14.00;99.90
4548;DHT22;2286;51.570;7.090;2022-08-02T02:17:02;14.00;99.90
4548;DHT22;2286;51.570;7.090;2022-08-02T02:19:32;13.90;99.90
4548;DHT22;2286;51.570;7.090;2022-08-02T02:22:01;13.90;99.90
4548;DHT22;2286;51.570;7.090;2022-08-02T02:24:28;13.90;99.90
4548;DHT22;2286;51.570;7.090;2022-08-02T02:26:56;13.80;99.90
4548;DHT22;2286;51.570;7.090;2022-08-02T02:29:27;13.80;99.90
4548;DHT22;2286;51.570;7.090;2022-08-02T02:31:56;13.70;99.90
4548;DHT22;2286;51.570;7.090;2022-08-02T02:34:27;13.70;99.90
4548;DHT22;2286;51.570;7.090;2022-08-02T02:36:57;13.60;99.90
4548;DHT22;2286;51.570;7.090;2022-08-02T02:39:26;13.60;99.90
4548;DHT22;2286;51.570;7.090;2022-08-02T02:41:56;13.60;99.90
4548;DHT22;2286;51.570;7.090;2022-08-02T02:44:26;13.60;99.90
4548;DHT22;2286;51.570;7.090;2022-08-02T02:46:54;13.60;99.90
4548;DHT22;2286;51.570;7.090;2022-08-02T02:49:23;13.60;99.90
4548;DHT22;2286;51.570;7.090;2022-08-02T02:51:52;13.60;99.90
4548;DHT22;2286;51.570;7.090;2022-08-02T02:54:19;13.60;99.90
4548;DHT22;2286;51.570;7.090;2022-08-02T02:56:48;13.60;99.90
4548;DHT22;2286;51.570;7.090;2022-08-02T02:59:17;13.60;99.90
4548;DHT22;2286;51.570;7.090;2022-08-02T03:01:44;13.60;99.90
4548;DHT22;2286;51.570;7.090;2022-08-02T03:04:13;13.60;99.90
4548;DHT22;2286;51.570;7.090;2022-08-02T03:06:40;13.60;99.90
4548;DHT22;2286;51.570;7.090;2022-08-02T03:09:08;13.50;99.90
4548;DHT22;2286;51.570;7.090;2022-08-02T03:11:36;13.60;99.90
4548;DHT22;2286;51.570;7.090;2022-08-02T03:14:06;13.60;99.90
4548;DHT22;2286;51.570;7.090;2022-08-02T03:16:41;13.60;99.90
4548;DHT22;2286;51.570;7.090;2022-08-02T03:19:08;13.40;99.90
4548;DHT22;2286;51.570;7.090;2022-08-02T03:21:35;13.40;99.90
4548;DHT22;2286;51.570;7.090;2022-08-02T03:24:02;13.30;99.90
4548;DHT22;2286;51.570;7.090;2022-08-02T03:26:31;13.40;99.90
4548;DHT22;2286;51.570;7.090;2022-08-02T03:28:58;13.30;99.90
4548;DHT22;2286;51.570;7.090;2022-08-02T03:31:24;13.30;99.90
4548;DHT22;2286;51.570;7.090;2022-08-02T03:33:52;13.30;99.90
4548;DHT22;2286;51.570;7.090;2022-08-02T03:36:22;13.20;99.90
4548;DHT22;2286;51.570;7.090;2022-08-02T03:38:50;13.10;99.90
4548;DHT22;2286;51.570;7.090;2022-08-02T03:41:18;13.20;99.90
4548;DHT22;2286;51.570;7.090;2022-08-02T03:43:48;13.20;99.90
4548;DHT22;2286;51.570;7.090;2022-08-02T03:46:19;13.20;99.90
4548;DHT22;2286;51.570;7.090;2022-08-02T03:48:46;13.10;99.90
4548;DHT22;2286;51.570;7.090;2022-08-02T03:51:14;13.10;99.90
4548;DHT22;2286;51.570;7.090;2022-08-02T03:53:42;13.10;99.90
4548;DHT22;2286;51.570;7.090;2022-08-02T03:56:09;13.10;99.90
4548;DHT22;2286;51.570;7.090;2022-08-02T03:58:36;13.10;99.90
4548;DHT22;2286;51.570;7.090;2022-08-02T04:01:04;13.20;99.90
4548;DHT22;2286;51.570;7.090;2022-08-02T04:03:31;13.20;99.90
4548;DHT22;2286;51.570;7.090;2022-08-02T04:05:58;13.20;99.90
4548;DHT22;2286;51.570;7.090;2022-08-02T04:08:25;13.20;99.90
4548;DHT22;2286;51.570;7.090;2022-08-02T04:10:52;13.10;99.90
4548;DHT22;2286;51.570;7.090;2022-08-02T04:13:37;13.10;99.90
4548;DHT22;2286;51.570;7.090;2022-08-02T04:16:11;13.20;99.90
4548;DHT22;2286;51.570;7.090;2022-08-02T04:18:42;13.10;99.90
4548;DHT22;2286;51.570;7.090;2022-08-02T04:21:13;13.10;99.90
4548;DHT22;2286;51.570;7.090;2022-08-02T04:23:42;13.20;99.90
4548;DHT22;2286;51.570;7.090;2022-08-02T04:26:11;13.20;99.90
4548;DHT22;2286;51.570;7.090;2022-08-02T04:28:39;13.20;99.90
4548;DHT22;2286;51.570;7.090;2022-08-02T04:31:08;13.20;99.90
4548;DHT22;2286;51.570;7.090;2022-08-02T04:33:35;13.30;99.90
4548;DHT22;2286;51.570;7.090;2022-08-02T04:36:04;13.40;99.90
4548;DHT22;2286;51.570;7.090;2022-08-02T04:38:31;13.50;99.90
4548;DHT22;2286;51.570;7.090;2022-08-02T04:40:58;13.50;99.90
4548;DHT22;2286;51.570;7.090;2022-08-02T04:43:25;13.50;99.90
4548;DHT22;2286;51.570;7.090;2022-08-02T04:45:53;13.50;99.90
4548;DHT22;2286;51.570;7.090;2022-08-02T04:48:22;13.60;99.90
4548;DHT22;2286;51.570;7.090;2022-08-02T04:50:49;13.60;99.90
4548;DHT22;2286;51.570;7.090;2022-08-02T04:53:16;13.70;99.90
4548;DHT22;2286;51.570;7.090;2022-08-02T04:55:44;13.70;99.90
4548;DHT22;2286;51.570;7.090;2022-08-02T04:58:11;13.70;99.90
4548;DHT22;2286;51.570;7.090;2022-08-02T05:00:38;13.80;99.90
4548;DHT22;2286;51.570;7.090;2022-08-02T05:03:05;13.90;99.90
4548;DHT22;2286;51.570;7.090;2022-08-02T05:05:33;13.80;99.90
4548;DHT22;2286;51.570;7.090;2022-08-02T05:08:00;13.90;99.90
4548;DHT22;2286;51.570;7.090;2022-08-02T05:10:27;13.90;99.90
4548;DHT22;2286;51.570;7.090;2022-08-02T05:12:54;14.00;99.90
4548;DHT22;2286;51.570;7.090;2022-08-02T05:15:21;14.10;99.90
4548;DHT22;2286;51.570;7.090;2022-08-02T05:17:48;14.20;99.90
4548;DHT22;2286;51.570;7.090;2022-08-02T05:20:16;14.20;99.90
4548;DHT22;2286;51.570;7.090;2022-08-02T05:22:45;14.30;99.90
4548;DHT22;2286;51.570;7.090;2022-08-02T05:25:13;14.40;99.90
4548;DHT22;2286;51.570;7.090;2022-08-02T05:27:40;14.50;99.90
4548;DHT22;2286;51.570;7.090;2022-08-02T05:30:07;14.70;99.90
4548;DHT22;2286;51.570;7.090;2022-08-02T05:32:41;14.90;99.90
4548;DHT22;2286;51.570;7.090;2022-08-02T05:35:08;15.10;99.90
4548;DHT22;2286;51.570;7.090;2022-08-02T05:37:35;15.30;99.90
4548;DHT22;2286;51.570;7.090;2022-08-02T05:40:04;15.50;99.90
4548;DHT22;2286;51.570;7.090;2022-08-02T05:42:32;15.60;99.90
4548;DHT22;2286;51.570;7.090;2022-08-02T05:44:59;15.70;99.90
4548;DHT22;2286;51.570;7.090;2022-08-02T05:47:26;15.60;99.90
4548;DHT22;2286;51.570;7.090;2022-08-02T05:49:53;15.70;99.90
4548;DHT22;2286;51.570;7.090;2022-08-02T05:52:24;15.70;99.90
4548;DHT22;2286;51.570;7.090;2022-08-02T05:54:56;15.70;99.90
4548;DHT22;2286;51.570;7.090;2022-08-02T05:57:36;15.80;99.90
4548;DHT22;2286;51.570;7.090;2022-08-02T06:00:08;15.90;99.90
4548;DHT22;2286;51.570;7.090;2022-08-02T06:02:58;16.00;99.90
4548;DHT22;2286;51.570;7.090;2022-08-02T06:05:32;16.10;99.90
4548;DHT22;2286;51.570;7.090;2022-08-02T06:07:59;16.20;99.90
4548;DHT22;2286;51.570;7.090;2022-08-02T06:10:27;16.30;99.90
4548;DHT22;2286;51.570;7.090;2022-08-02T06:13:06;16.40;99.90
4548;DHT22;2286;51.570;7.090;2022-08-02T06:15:33;16.50;99.90
4548;DHT22;2286;51.570;7.090;2022-08-02T06:18:01;16.60;99.90
4548;DHT22;2286;51.570;7.090;2022-08-02T06:20:29;16.70;99.90
4548;DHT22;2286;51.570;7.090;2022-08-02T06:23:00;16.80;99.90
4548;DHT22;2286;51.570;7.090;2022-08-02T06:25:28;16.90;99.90
4548;DHT22;2286;51.570;7.090;2022-08-02T06:27:57;17.00;99.90
4548;DHT22;2286;51.570;7.090;2022-08-02T06:30:25;17.10;99.90
4548;DHT22;2286;51.570;7.090;2022-08-02T06:32:53;17.20;99.90
4548;DHT22;2286;51.570;7.090;2022-08-02T06:35:20;17.30;99.90
4548;DHT22;2286;51.570;7.090;2022-08-02T06:37:51;17.40;99.90
4548;DHT22;2286;51.570;7.090;2022-08-02T06:40:26;17.60;99.90
4548;DHT22;2286;51.570;7.090;2022-08-02T06:43:05;17.70;99.90
4548;DHT22;2286;51.570;7.090;2022-08-02T06:45:33;17.80;99.90
4548;DHT22;2286;51.570;7.090;2022-08-02T06:48:00;17.90;99.90
4548;DHT22;2286;51.570;7.090;2022-08-02T06:50:27;18.00;99.90
4548;DHT22;2286;51.570;7.090;2022-08-02T06:52:54;18.10;99.90
4548;DHT22;2286;51.570;7.090;2022-08-02T06:55:21;18.20;99.90
4548;DHT22;2286;51.570;7.090;2022-08-02T06:57:48;18.30;99.90
4548;DHT22;2286;51.570;7.090;2022-08-02T07:00:17;18.50;99.90
4548;DHT22;2286;51.570;7.090;2022-08-02T07:02:44;18.60;99.90
4548;DHT22;2286;51.570;7.090;2022-08-02T07:05:11;18.70;99.90
4548;DHT22;2286;51.570;7.090;2022-08-02T07:07:38;18.80;99.90
4548;DHT22;2286;51.570;7.090;2022-08-02T07:10:05;19.00;99.90
4548;DHT22;2286;51.570;7.090;2022-08-02T07:12:33;19.10;99.90
4548;DHT22;2286;51.570;7.090;2022-08-02T07:15:01;19.20;99.90
4548;DHT22;2286;51.570;7.090;2022-08-02T07:17:30;19.30;99.90
4548;DHT22;2286;51.570;7.090;2022-08-02T07:19:58;19.40;99.90
4548;DHT22;2286;51.570;7.090;2022-08-02T07:22:26;19.50;99.90
4548;DHT22;2286;51.570;7.090;2022-08-02T07:24:54;19.70;1.00
4548;DHT22;2286;51.570;7.090;2022-08-02T07:27:21;19.90;99.90
4548;DHT22;2286;51.570;7.090;2022-08-02T07:29:48;20.10;99.90
4548;DHT22;2286;51.570;7.090;2022-08-02T07:32:16;20.20;1.00
4548;DHT22;2286;51.570;7.090;2022-08-02T07:34:45;20.30;1.00
4548;DHT22;2286;51.570;7.090;2022-08-02T07:37:13;20.50;99.90
4548;DHT22;2286;51.570;7.090;2022-08-02T07:39:40;20.60;1.00
4548;DHT22;2286;51.570;7.090;2022-08-02T07:42:06;20.70;1.00
4548;DHT22;2286;51.570;7.090;2022-08-02T07:44:33;20.80;99.90
4548;DHT22;2286;51.570;7.090;2022-08-02T07:47:00;20.90;99.90
4548;DHT22;2286;51.570;7.090;2022-08-02T07:49:27;20.90;99.90
4548;DHT22;2286;51.570;7.090;2022-08-02T07:51:56;21.00;1.00
4548;DHT22;2286;51.570;7.090;2022-08-02T07:54:23;21.10;1.00
4548;DHT22;2286;51.570;7.090;2022-08-02T07:56:50;21.30;1.00
4548;DHT22;2286;51.570;7.090;2022-08-02T07:59:19;21.40;99.90
4548;DHT22;2286;51.570;7.090;2022-08-02T08:01:46;21.60;99.90
4548;DHT22;2286;51.570;7.090;2022-08-02T08:04:14;21.70;99.90
4548;DHT22;2286;51.570;7.090;2022-08-02T08:06:41;21.80;1.00
4548;DHT22;2286;51.570;7.090;2022-08-02T08:09:09;21.90;1.00
4548;DHT22;2286;51.570;7.090;2022-08-02T08:11:36;22.00;99.90
4548;DHT22;2286;51.570;7.090;2022-08-02T08:14:04;22.10;1.00
4548;DHT22;2286;51.570;7.090;2022-08-02T08:16:31;22.20;99.90
4548;DHT22;2286;51.570;7.090;2022-08-02T08:18:58;22.30;99.90
4548;DHT22;2286;51.570;7.090;2022-08-02T08:21:25;22.40;99.90
4548;DHT22;2286;51.570;7.090;2022-08-02T08:23:52;22.50;99.90
4548;DHT22;2286;51.570;7.090;2022-08-02T08:26:20;22.60;99.90
4548;DHT22;2286;51.570;7.090;2022-08-02T08:28:47;22.80;99.90
4548;DHT22;2286;51.570;7.090;2022-08-02T08:31:14;22.80;99.90
4548;DHT22;2286;51.570;7.090;2022-08-02T08:33:41;22.90;99.90
4548;DHT22;2286;51.570;7.090;2022-08-02T08:36:08;23.00;99.90
4548;DHT22;2286;51.570;7.090;2022-08-02T08:38:35;23.20;99.90
4548;DHT22;2286;51.570;7.090;2022-08-02T08:41:02;23.30;99.90
4548;DHT22;2286;51.570;7.090;2022-08-02T08:43:30;23.40;99.90
4548;DHT22;2286;51.570;7.090;2022-08-02T08:45:57;23.60;99.90
4548;DHT22;2286;51.570;7.090;2022-08-02T08:48:24;23.60;99.90
4548;DHT22;2286;51.570;7.090;2022-08-02T08:50:55;23.70;99.90
4548;DHT22;2286;51.570;7.090;2022-08-02T08:53:24;23.80;99.90
4548;DHT22;2286;51.570;7.090;2022-08-02T08:55:53;23.80;99.90
4548;DHT22;2286;51.570;7.090;2022-08-02T08:58:21;23.90;99.90
4548;DHT22;2286;51.570;7.090;2022-08-02T09:00:49;24.00;99.90
4548;DHT22;2286;51.570;7.090;2022-08-02T09:03:16;24.10;99.90
4548;DHT22;2286;51.570;7.090;2022-08-02T09:05:43;24.00;99.90
4548;DHT22;2286;51.570;7.090;2022-08-02T09:08:12;24.10;99.90
4548;DHT22;2286;51.570;7.090;2022-08-02T09:10:40;24.20;99.90
4548;DHT22;2286;51.570;7.090;2022-08-02T09:13:13;24.20;99.90
4548;DHT22;2286;51.570;7.090;2022-08-02T09:15:43;24.30;99.90
4548;DHT22;2286;51.570;7.090;2022-08-02T09:18:12;24.30;99.90
4548;DHT22;2286;51.570;7.090;2022-08-02T09:20:53;24.50;99.90
4548;DHT22;2286;51.570;7.090;2022-08-02T09:23:22;24.70;99.90
4548;DHT22;2286;51.570;7.090;2022-08-02T09:25:57;24.90;99.90
4548;DHT22;2286;51.570;7.090;2022-08-02T09:28:25;24.90;99.90
4548;DHT22;2286;51.570;7.090;2022-08-02T09:30:56;25.00;99.90
4548;DHT22;2286;51.570;7.090;2022-08-02T09:33:28;24.80;99.90
4548;DHT22;2286;51.570;7.090;2022-08-02T09:36:03;24.90;99.90
4548;DHT22;2286;51.570;7.090;2022-08-02T09:38:30;25.00;99.90
4548;DHT22;2286;51.570;7.090;2022-08-02T09:40:58;25.30;99.90
4548;DHT22;2286;51.570;7.090;2022-08-02T09:43:36;25.60;99.90
4548;DHT22;2286;51.570;7.090;2022-08-02T09:46:10;25.80;99.90
4548;DHT22;2286;51.570;7.090;2022-08-02T09:48:47;26.00;99.90
4548;DHT22;2286;51.570;7.090;2022-08-02T09:51:17;26.00;99.90
4548;DHT22;2286;51.570;7.090;2022-08-02T09:53:46;26.40;99.90
4548;DHT22;2286;51.570;7.090;2022-08-02T09:56:13;26.50;99.90
4548;DHT22;2286;51.570;7.090;2022-08-02T09:58:41;26.70;99.90
4548;DHT22;2286;51.570;7.090;2022-08-02T10:01:08;26.80;99.90
4548;DHT22;2286;51.570;7.090;2022-08-02T10:03:35;26.40;99.90
4548;DHT22;2286;51.570;7.090;2022-08-02T10:06:03;26.40;99.90
4548;DHT22;2286;51.570;7.090;2022-08-02T10:08:31;26.20;99.90
4548;DHT22;2286;51.570;7.090;2022-08-02T10:10:58;26.30;99.90
4548;DHT22;2286;51.570;7.090;2022-08-02T10:13:30;26.70;99.90
4548;DHT22;2286;51.570;7.090;2022-08-02T10:15:57;26.80;99.90
4548;DHT22;2286;51.570;7.090;2022-08-02T10:18:24;26.90;99.90
4548;DHT22;2286;51.570;7.090;2022-08-02T10:20:54;27.10;99.90
4548;DHT22;2286;51.570;7.090;2022-08-02T10:23:25;27.20;99.90
4548;DHT22;2286;51.570;7.090;2022-08-02T10:25:53;27.00;99.90
4548;DHT22;2286;51.570;7.090;2022-08-02T10:28:25;26.80;99.90
4548;DHT22;2286;51.570;7.090;2022-08-02T10:30:54;26.50;99.90
4548;DHT22;2286;51.570;7.090;2022-08-02T10:33:22;26.60;99.90
4548;DHT22;2286;51.570;7.090;2022-08-02T10:35:53;26.60;99.90
4548;DHT22;2286;51.570;7.090;2022-08-02T10:38:23;26.80;99.90
4548;DHT22;2286;51.570;7.090;2022-08-02T10:40:52;26.60;99.90
4548;DHT22;2286;51.570;7.090;2022-08-02T10:43:39;27.20;99.90
4548;DHT22;2286;51.570;7.090;2022-08-02T10:46:23;27.80;99.90
4548;DHT22;2286;51.570;7.090;2022-08-02T10:49:08;28.30;99.90
4548;DHT22;2286;51.570;7.090;2022-08-02T10:51:57;29.30;99.90
4548;DHT22;2286;51.570;7.090;2022-08-02T10:54:34;30.10;99.90
4548;DHT22;2286;51.570;7.090;2022-08-02T10:57:02;29.60;99.90
4548;DHT22;2286;51.570;7.090;2022-08-02T10:59:31;28.90;99.90
4548;DHT22;2286;51.570;7.090;2022-08-02T11:02:02;29.70;99.90
4548;DHT22;2286;51.570;7.090;2022-08-02T11:04:31;29.60;99.90
4548;DHT22;2286;51.570;7.090;2022-08-02T11:07:09;29.50;99.90
4548;DHT22;2286;51.570;7.090;2022-08-02T11:09:37;29.70;99.90
4548;DHT22;2286;51.570;7.090;2022-08-02T11:12:06;29.70;99.90
4548;DHT22;2286;51.570;7.090;2022-08-02T11:14:35;29.90;99.90
4548;DHT22;2286;51.570;7.090;2022-08-02T11:17:07;29.20;99.90
4548;DHT22;2286;51.570;7.090;2022-08-02T11:19:34;28.90;99.90
4548;DHT22;2286;51.570;7.090;2022-08-02T11:22:22;28.70;99.90
4548;DHT22;2286;51.570;7.090;2022-08-02T11:24:49;29.40;99.90
4548;DHT22;2286;51.570;7.090;2022-08-02T11:27:18;30.30;99.90
4548;DHT22;2286;51.570;7.090;2022-08-02T11:29:45;31.50;99.90
4548;DHT22;2286;51.570;7.090;2022-08-02T11:32:15;30.70;99.90
4548;DHT22;2286;51.570;7.090;2022-08-02T11:34:45;30.80;99.90
4548;DHT22;2286;51.570;7.090;2022-08-02T11:37:27;30.80;99.90
4548;DHT22;2286;51.570;7.090;2022-08-02T11:39:54;30.10;99.90
4548;DHT22;2286;51.570;7.090;2022-08-02T11:42:21;29.90;99.90
4548;DHT22;2286;51.570;7.090;2022-08-02T11:44:56;29.30;99.90
4548;DHT22;2286;51.570;7.090;2022-08-02T11:47:23;29.00;99.90
4548;DHT22;2286;51.570;7.090;2022-08-02T11:49:50;28.80;99.90
4548;DHT22;2286;51.570;7.090;2022-08-02T11:52:17;29.10;99.90
4548;DHT22;2286;51.570;7.090;2022-08-02T11:54:48;29.50;99.90
4548;DHT22;2286;51.570;7.090;2022-08-02T11:57:16;30.30;99.90
4548;DHT22;2286;51.570;7.090;2022-08-02T11:59:44;30.60;99.90
4548;DHT22;2286;51.570;7.090;2022-08-02T12:02:12;30.60;99.90
4548;DHT22;2286;51.570;7.090;2022-08-02T12:04:39;30.70;99.90
4548;DHT22;2286;51.570;7.090;2022-08-02T12:07:07;30.50;99.90
4548;DHT22;2286;51.570;7.090;2022-08-02T12:09:35;30.10;99.90
4548;DHT22;2286;51.570;7.090;2022-08-02T12:12:04;30.20;99.90
4548;DHT22;2286;51.570;7.090;2022-08-02T12:14:31;31.50;99.90
4548;DHT22;2286;51.570;7.090;2022-08-02T12:17:06;32.70;99.90
4548;DHT22;2286;51.570;7.090;2022-08-02T12:19:51;32.90;99.90
4548;DHT22;2286;51.570;7.090;2022-08-02T12:22:22;33.50;99.90
4548;DHT22;2286;51.570;7.090;2022-08-02T12:24:51;33.80;99.90
4548;DHT22;2286;51.570;7.090;2022-08-02T12:27:33;33.30;99.90
4548;DHT22;2286;51.570;7.090;2022-08-02T12:30:04;33.20;99.90
4548;DHT22;2286;51.570;7.090;2022-08-02T12:32:32;33.00;99.90
4548;DHT22;2286;51.570;7.090;2022-08-02T12:35:01;32.40;99.90
4548;DHT22;2286;51.570;7.090;2022-08-02T12:37:28;32.80;99.90
4548;DHT22;2286;51.570;7.090;2022-08-02T12:39:55;32.50;99.90
4548;DHT22;2286;51.570;7.090;2022-08-02T12:42:22;32.00;99.90
4548;DHT22;2286;51.570;7.090;2022-08-02T12:44:52;31.80;99.90
4548;DHT22;2286;51.570;7.090;2022-08-02T12:47:19;32.30;99.90
4548;DHT22;2286;51.570;7.090;2022-08-02T12:49:46;32.70;99.90
4548;DHT22;2286;51.570;7.090;2022-08-02T12:52:34;33.30;99.90
4548;DHT22;2286;51.570;7.090;2022-08-02T12:55:14;34.40;99.90
4548;DHT22;2286;51.570;7.090;2022-08-02T12:57:51;34.80;99.90
4548;DHT22;2286;51.570;7.090;2022-08-02T13:00:25;34.50;99.90
4548;DHT22;2286;51.570;7.090;2022-08-02T13:02:53;34.20;99.90
4548;DHT22;2286;51.570;7.090;2022-08-02T13:05:20;34.60;99.90
4548;DHT22;2286;51.570;7.090;2022-08-02T13:07:47;34.50;99.90
4548;DHT22;2286;51.570;7.090;2022-08-02T13:10:14;34.30;99.90
4548;DHT22;2286;51.570;7.090;2022-08-02T13:12:41;33.90;99.90
4548;DHT22;2286;51.570;7.090;2022-08-02T13:15:09;35.40;99.90
4548;DHT22;2286;51.570;7.090;2022-08-02T13:17:38;36.60;99.90
4548;DHT22;2286;51.570;7.090;2022-08-02T13:20:06;36.50;99.90
4548;DHT22;2286;51.570;7.090;2022-08-02T13:22:34;35.20;99.90
4548;DHT22;2286;51.570;7.090;2022-08-02T13:25:02;35.20;99.90
4548;DHT22;2286;51.570;7.090;2022-08-02T13:27:29;35.70;99.90
4548;DHT22;2286;51.570;7.090;2022-08-02T13:29:57;37.10;99.90
4548;DHT22;2286;51.570;7.090;2022-08-02T13:32:24;38.30;99.90
4548;DHT22;2286;51.570;7.090;2022-08-02T13:34:54;37.40;99.90
4548;DHT22;2286;51.570;7.090;2022-08-02T13:37:21;37.40;99.90
4548;DHT22;2286;51.570;7.090;2022-08-02T13:39:48;38.20;99.90
4548;DHT22;2286;51.570;7.090;2022-08-02T13:42:15;38.50;99.90
4548;DHT22;2286;51.570;7.090;2022-08-02T13:44:42;37.60;99.90
4548;DHT22;2286;51.570;7.090;2022-08-02T13:47:09;35.80;99.90
4548;DHT22;2286;51.570;7.090;2022-08-02T13:49:36;36.90;99.90
4548;DHT22;2286;51.570;7.090;2022-08-02T13:52:05;36.70;99.90
4548;DHT22;2286;51.570;7.090;2022-08-02T13:54:32;36.80;99.90
4548;DHT22;2286;51.570;7.090;2022-08-02T13:56:59;37.80;99.90
4548;DHT22;2286;51.570;7.090;2022-08-02T13:59:26;38.00;99.90
4548;DHT22;2286;51.570;7.090;2022-08-02T14:01:54;37.70;99.90
4548;DHT22;2286;51.570;7.090;2022-08-02T14:04:21;38.40;99.90
4548;DHT22;2286;51.570;7.090;2022-08-02T14:06:48;38.50;99.90
4548;DHT22;2286;51.570;7.090;2022-08-02T14:09:17;38.30;99.90
4548;DHT22;2286;51.570;7.090;2022-08-02T14:11:44;38.70;99.90
4548;DHT22;2286;51.570;7.090;2022-08-02T14:14:11;38.60;99.90
4548;DHT22;2286;51.570;7.090;2022-08-02T14:16:38;38.80;99.90
4548;DHT22;2286;51.570;7.090;2022-08-02T14:19:05;39.80;99.90
4548;DHT22;2286;51.570;7.090;2022-08-02T14:21:33;39.90;99.90
4548;DHT22;2286;51.570;7.090;2022-08-02T14:24:01;39.00;99.90
4548;DHT22;2286;51.570;7.090;2022-08-02T14:26:29;39.00;99.90
4548;DHT22;2286;51.570;7.090;2022-08-02T14:28:56;39.40;99.90
4548;DHT22;2286;51.570;7.090;2022-08-02T14:31:23;39.70;99.90
4548;DHT22;2286;51.570;7.090;2022-08-02T14:33:50;39.90;99.90
4548;DHT22;2286;51.570;7.090;2022-08-02T14:36:17;39.20;99.90
4548;DHT22;2286;51.570;7.090;2022-08-02T14:38:44;39.60;99.90
4548;DHT22;2286;51.570;7.090;2022-08-02T14:41:11;38.10;99.90
4548;DHT22;2286;51.570;7.090;2022-08-02T14:43:39;37.40;99.90
4548;DHT22;2286;51.570;7.090;2022-08-02T14:46:23;38.40;99.90
4548;DHT22;2286;51.570;7.090;2022-08-02T14:48:50;39.50;99.90
4548;DHT22;2286;51.570;7.090;2022-08-02T14:51:17;40.20;99.90
4548;DHT22;2286;51.570;7.090;2022-08-02T14:53:44;40.60;99.90
4548;DHT22;2286;51.570;7.090;2022-08-02T14:56:11;40.10;99.90
4548;DHT22;2286;51.570;7.090;2022-08-02T14:58:39;40.60;99.90
4548;DHT22;2286;51.570;7.090;2022-08-02T15:01:06;39.20;99.90
4548;DHT22;2286;51.570;7.090;2022-08-02T15:03:33;39.40;99.90
4548;DHT22;2286;51.570;7.090;2022-08-02T15:06:00;40.20;99.90
4548;DHT22;2286;51.570;7.090;2022-08-02T15:08:26;40.60;99.90
4548;DHT22;2286;51.570;7.090;2022-08-02T15:10:53;40.50;99.90
4548;DHT22;2286;51.570;7.090;2022-08-02T15:13:20;40.60;99.90
4548;DHT22;2286;51.570;7.090;2022-08-02T15:15:48;39.60;99.90
4548;DHT22;2286;51.570;7.090;2022-08-02T15:18:15;39.40;99.90
4548;DHT22;2286;51.570;7.090;2022-08-02T15:20:42;39.10;99.90
4548;DHT22;2286;51.570;7.090;2022-08-02T15:23:11;39.70;99.90
4548;DHT22;2286;51.570;7.090;2022-08-02T15:25:38;41.10;99.90
4548;DHT22;2286;51.570;7.090;2022-08-02T15:28:05;41.10;99.90
4548;DHT22;2286;51.570;7.090;2022-08-02T15:30:32;39.50;99.90
4548;DHT22;2286;51.570;7.090;2022-08-02T15:33:01;38.00;99.90
4548;DHT22;2286;51.570;7.090;2022-08-02T15:35:28;37.90;99.90
4548;DHT22;2286;51.570;7.090;2022-08-02T15:37:55;38.80;99.90
4548;DHT22;2286;51.570;7.090;2022-08-02T15:40:22;38.20;99.90
4548;DHT22;2286;51.570;7.090;2022-08-02T15:42:49;37.60;99.90
4548;DHT22;2286;51.570;7.090;2022-08-02T15:45:16;37.90;99.90
4548;DHT22;2286;51.570;7.090;2022-08-02T15:47:43;38.80;99.90
4548;DHT22;2286;51.570;7.090;2022-08-02T15:50:12;39.30;99.90
4548;DHT22;2286;51.570;7.090;2022-08-02T15:52:38;39.20;99.90
4548;DHT22;2286;51.570;7.090;2022-08-02T15:55:06;39.40;99.90
4548;DHT22;2286;51.570;7.090;2022-08-02T15:57:33;39.50;99.90
4548;DHT22;2286;51.570;7.090;2022-08-02T16:00:00;38.70;99.90
4548;DHT22;2286;51.570;7.090;2022-08-02T16:02:27;38.40;99.90
4548;DHT22;2286;51.570;7.090;2022-08-02T16:04:54;38.90;99.90
4548;DHT22;2286;51.570;7.090;2022-08-02T16:07:22;39.20;99.90
4548;DHT22;2286;51.570;7.090;2022-08-02T16:09:49;37.70;99.90
4548;DHT22;2286;51.570;7.090;2022-08-02T16:12:16;38.20;99.90
4548;DHT22;2286;51.570;7.090;2022-08-02T16:14:43;37.90;99.90
4548;DHT22;2286;51.570;7.090;2022-08-02T16:17:09;38.70;99.90